La Grange Park, Illinois
Current Conditions -  °F | °C
As of 6:53 AM on Saturday 20 Dec 2014 (Local Time) from KMDW Reporting Station
Overcast Overcast  
Wind Chill: 32°   Ceiling: 2600
Heat Index: 32°   Visibility: 9mi
Dew Point: 25°   Wind: 3mph
Humidity: 75%   Direction: 200°SSW
Pressure: 30.28"   Gusts: NA
Location:  41.82°N, 87.87°W
Report Text: KMDW 201253Z 20003KT 9SM OVC026 00/M04 A3028 RMK AO2 SLP265 T00001039 $
Loading
Personal Weather Stations






























Interactive Weather Map New forecast layout! Learn more

10-Day Weather Forecast

Advertisements
Track Severe Weather on mobile